Time;durP1;ratioP1;P1;durP2;ratioP2;P2;SDS_P1;SDS_P2;PMS_P1;PMS_P2;Temp;Humidity;BMP_temperature;BMP_pressure;BME280_temperature;BME280_humidity;BME280_pressure;Samples;Min_cycle;Max_cycle;Signal;HPM_P1;HPM_P2
2022/12/09 00:00:51;;;;;;;5.37;4.03;;;-1.40;99.90;;;;;;5051895;28;20529;-49
2022/12/09 00:03:17;;;;;;;4.00;3.30;;;-1.10;99.90;;;;;;5051399;28;20990;-48
2022/12/09 00:05:44;;;;;;;4.40;3.50;;;-1.00;99.90;;;;;;5051778;28;20536;-49
2022/12/09 00:08:11;;;;;;;6.00;4.10;;;-1.10;99.90;;;;;;5051614;28;20473;-49
2022/12/09 00:10:43;;;;;;;3.73;3.13;;;-1.10;99.90;;;;;;5055904;28;21003;-49
2022/12/09 00:13:10;;;;;;;3.87;3.40;;;-1.20;99.90;;;;;;5070435;28;20551;-51
2022/12/09 00:15:41;;;;;;;3.93;3.40;;;-1.30;99.90;;;;;;5071463;28;20447;-50
2022/12/09 00:18:07;;;;;;;4.63;3.40;;;-1.30;99.90;;;;;;5051410;28;20442;-49
2022/12/09 00:20:34;;;;;;;6.53;4.80;;;-1.20;99.90;;;;;;5050921;28;20446;-49
2022/12/09 00:23:01;;;;;;;6.30;2.60;;;-1.40;99.90;;;;;;5050501;28;20484;-49
2022/12/09 00:25:28;;;;;;;3.87;2.60;;;-1.50;99.90;;;;;;5051178;28;20449;-49
2022/12/09 00:27:56;;;;;;;3.30;3.00;;;-1.30;99.90;;;;;;5051301;28;20536;-51
2022/12/09 00:30:23;;;;;;;2.70;2.10;;;-1.10;99.90;;;;;;5051293;28;20480;-49
2022/12/09 00:32:50;;;;;;;2.27;1.90;;;-1.40;99.90;;;;;;5051135;28;20553;-51
2022/12/09 00:35:17;;;;;;;3.67;2.03;;;-1.40;99.90;;;;;;5051258;28;20523;-49
2022/12/09 00:37:44;;;;;;;2.83;1.90;;;-1.40;99.90;;;;;;5050870;28;20524;-49
2022/12/09 00:40:12;;;;;;;2.87;2.17;;;-1.40;99.90;;;;;;5051486;28;20446;-49
2022/12/09 00:42:39;;;;;;;3.67;3.37;;;-1.20;99.90;;;;;;5050833;28;20545;-49
2022/12/09 00:45:08;;;;;;;5.10;3.50;;;-1.10;99.90;;;;;;5050635;28;20729;-49
2022/12/09 00:47:35;;;;;;;3.80;3.30;;;-1.60;99.90;;;;;;5051312;28;20458;-49
2022/12/09 00:50:02;;;;;;;4.53;3.87;;;-1.30;99.90;;;;;;5051202;28;20734;-49
2022/12/09 00:52:28;;;;;;;3.90;3.50;;;-1.40;99.90;;;;;;5050513;28;20445;-49
2022/12/09 00:54:55;;;;;;;4.70;4.20;;;-2.00;99.90;;;;;;5054722;28;20451;-49
2022/12/09 00:57:22;;;;;;;4.33;3.83;;;-2.10;99.90;;;;;;5055185;28;20884;-49
2022/12/09 00:59:49;;;;;;;3.90;3.40;;;-2.20;99.90;;;;;;5054741;28;21013;-49
2022/12/09 01:02:17;;;;;;;7.60;5.87;;;-2.30;99.90;;;;;;5054677;28;20443;-50
2022/12/09 01:04:44;;;;;;;5.20;3.43;;;-1.60;99.90;;;;;;5054397;28;20627;-48
2022/12/09 01:07:11;;;;;;;5.60;4.13;;;-1.50;99.90;;;;;;5054690;28;20860;-49
2022/12/09 01:09:37;;;;;;;6.70;4.67;;;-2.10;99.90;;;;;;5054239;28;20826;-49
2022/12/09 01:12:05;;;;;;;5.77;3.90;;;-2.20;99.90;;;;;;5054503;28;20475;-49
2022/12/09 01:14:32;;;;;;;5.00;4.17;;;-2.10;99.90;;;;;;5054385;28;20549;-49
2022/12/09 01:16:58;;;;;;;4.20;3.80;;;-1.90;99.90;;;;;;5054258;28;20794;-49
2022/12/09 01:19:27;;;;;;;6.23;5.00;;;-1.80;99.90;;;;;;5054711;28;20478;-49
2022/12/09 01:21:54;;;;;;;5.30;4.30;;;-2.10;99.90;;;;;;5054331;28;20448;-49
2022/12/09 01:24:21;;;;;;;6.20;3.80;;;-2.00;99.90;;;;;;5054548;28;20464;-49
2022/12/09 01:26:48;;;;;;;4.47;4.03;;;-1.70;99.90;;;;;;5054389;28;20442;-52
2022/12/09 01:29:15;;;;;;;8.27;4.27;;;-1.90;99.90;;;;;;5054227;28;20535;-49
2022/12/09 01:31:42;;;;;;;5.37;4.17;;;-2.00;99.90;;;;;;5054029;28;20580;-49
2022/12/09 01:34:09;;;;;;;5.20;3.70;;;-1.70;99.90;;;;;;5054045;28;20462;-49
2022/12/09 01:36:37;;;;;;;5.67;4.07;;;-1.60;99.90;;;;;;5054090;28;20955;-49
2022/12/09 01:39:05;;;;;;;5.20;3.80;;;-1.60;99.90;;;;;;5053983;28;20527;-49
2022/12/09 01:41:31;;;;;;;5.90;3.90;;;-1.50;99.90;;;;;;5054099;28;20525;-49
2022/12/09 01:44:13;;;;;;;9.43;4.40;;;-1.50;99.90;;;;;;5053900;28;20548;-49
2022/12/09 01:46:40;;;;;;;5.20;2.77;;;-1.50;99.90;;;;;;5054313;28;20564;-49
2022/12/09 01:49:09;;;;;;;4.53;3.50;;;-1.50;99.90;;;;;;5054277;28;20525;-49
2022/12/09 01:51:38;;;;;;;3.90;3.10;;;-1.40;99.90;;;;;;5057405;28;20477;-52
2022/12/09 01:54:05;;;;;;;4.37;3.93;;;-1.60;99.90;;;;;;5073529;28;20573;-49
2022/12/09 01:56:34;;;;;;;7.33;3.17;;;-1.40;99.90;;;;;;5073088;28;20443;-51
2022/12/09 01:59:04;;;;;;;4.43;3.40;;;-1.30;99.90;;;;;;5073812;28;20468;-49
2022/12/09 02:01:31;;;;;;;4.23;3.83;;;-1.30;99.90;;;;;;5065977;28;20516;-49
2022/12/09 02:03:59;;;;;;;4.10;3.50;;;-1.30;99.90;;;;;;5072331;28;20539;-49
2022/12/09 02:06:26;;;;;;;4.10;3.57;;;-1.40;99.90;;;;;;5072629;28;20552;-51
2022/12/09 02:08:55;;;;;;;4.70;4.30;;;-1.20;99.90;;;;;;5071884;28;20451;-49
2022/12/09 02:11:33;;;;;;;3.87;3.50;;;-1.40;99.90;;;;;;5064226;28;20496;-49
2022/12/09 02:14:05;;;;;;;3.67;3.37;;;-1.10;99.90;;;;;;5053468;28;20508;-49
2022/12/09 02:16:50;;;;;;;3.17;2.97;;;-1.10;99.90;;;;;;5053636;28;20518;-49
2022/12/09 02:19:29;;;;;;;4.37;3.40;;;-1.10;99.90;;;;;;5056119;28;20540;-49
2022/12/09 02:21:58;;;;;;;3.73;3.00;;;-1.10;99.90;;;;;;5065222;28;20950;-49
2022/12/09 02:24:34;;;;;;;4.13;2.80;;;-1.10;99.90;;;;;;5071480;28;20464;-49
2022/12/09 02:27:10;;;;;;;3.80;3.37;;;-1.00;99.90;;;;;;5053720;28;20548;-49
2022/12/09 02:30:00;;;;;;;6.80;4.30;;;-1.30;99.90;;;;;;5053276;28;20537;-49
2022/12/09 02:32:40;;;;;;;5.30;3.80;;;-1.40;99.90;;;;;;5057392;28;20627;-49
2022/12/09 02:35:14;;;;;;;4.27;3.37;;;-1.20;99.90;;;;;;5074637;28;20870;-49
2022/12/09 02:37:49;;;;;;;6.53;3.90;;;-1.70;99.90;;;;;;5072981;28;20519;-50
2022/12/09 02:40:20;;;;;;;7.00;4.07;;;-1.30;99.90;;;;;;5073478;28;20487;-49
2022/12/09 02:42:49;;;;;;;4.90;3.90;;;-1.70;99.90;;;;;;5053101;28;20544;-51
2022/12/09 02:45:18;;;;;;;6.70;4.03;;;-2.00;99.90;;;;;;5052954;28;20790;-49
2022/12/09 02:47:48;;;;;;;5.47;3.23;;;-1.60;99.90;;;;;;5063756;28;20481;-51
2022/12/09 02:50:20;;;;;;;4.30;3.70;;;-1.50;99.90;;;;;;5067668;28;20444;-49
2022/12/09 02:52:48;;;;;;;6.60;3.87;;;-1.70;99.90;;;;;;5052557;28;20855;-51
2022/12/09 02:55:17;;;;;;;7.20;3.97;;;-1.70;99.90;;;;;;5052727;28;20535;-49
2022/12/09 02:57:44;;;;;;;6.10;4.27;;;-1.70;99.90;;;;;;5052715;28;20445;-49
2022/12/09 03:00:15;;;;;;;5.93;3.80;;;-1.60;99.90;;;;;;5052866;28;20446;-49
2022/12/09 03:02:45;;;;;;;4.90;4.07;;;-1.30;99.90;;;;;;5053119;28;20462;-49
2022/12/09 03:05:21;;;;;;;6.27;4.30;;;-1.30;99.90;;;;;;5052462;28;20533;-49
2022/12/09 03:07:59;;;;;;;6.37;4.17;;;-1.10;99.90;;;;;;5066526;28;20445;-49
2022/12/09 03:10:31;;;;;;;5.53;4.10;;;-1.10;99.90;;;;;;5071627;28;20523;-49
2022/12/09 03:13:03;;;;;;;5.67;3.97;;;-1.30;99.90;;;;;;5072086;28;20567;-49
2022/12/09 03:15:33;;;;;;;7.83;4.33;;;-1.30;99.90;;;;;;5054339;28;20529;-49
2022/12/09 03:18:03;;;;;;;4.40;4.00;;;-1.30;99.90;;;;;;5052726;28;20529;-49
2022/12/09 03:20:37;;;;;;;4.00;3.60;;;-1.50;99.90;;;;;;5052862;28;20545;-48
2022/12/09 03:23:06;;;;;;;5.57;4.33;;;-1.70;99.90;;;;;;5071904;28;21029;-49
2022/12/09 03:25:38;;;;;;;8.30;4.97;;;-1.70;99.90;;;;;;5072019;28;20528;-48
2022/12/09 03:28:07;;;;;;;4.60;4.17;;;-1.50;99.90;;;;;;5072497;28;20451;-48
2022/12/09 03:30:37;;;;;;;4.53;3.80;;;-1.30;99.90;;;;;;5071447;28;20532;-50
2022/12/09 03:33:04;;;;;;;3.87;3.27;;;-1.20;99.90;;;;;;5071727;28;20485;-48
2022/12/09 03:35:38;;;;;;;4.80;3.80;;;-1.70;99.90;;;;;;5071803;28;20450;-49
2022/12/09 03:38:07;;;;;;;4.60;4.10;;;-1.90;99.90;;;;;;5051948;28;20445;-50
2022/12/09 03:40:36;;;;;;;6.83;4.10;;;-1.70;99.90;;;;;;5061591;28;20522;-48
2022/12/09 03:43:08;;;;;;;4.23;3.80;;;-1.20;99.90;;;;;;5071275;28;20457;-50
2022/12/09 03:45:35;;;;;;;5.07;4.23;;;-1.90;99.90;;;;;;5070699;28;20448;-51
2022/12/09 03:48:02;;;;;;;5.63;3.80;;;-1.90;99.90;;;;;;5071237;28;20445;-48
2022/12/09 03:50:39;;;;;;;6.70;4.47;;;-1.50;99.90;;;;;;5071432;28;20528;-49
2022/12/09 03:53:10;;;;;;;4.13;3.67;;;-1.80;99.90;;;;;;5051203;28;20483;-48
2022/12/09 03:55:41;;;;;;;4.87;4.17;;;-2.00;99.90;;;;;;5051691;28;20534;-48
2022/12/09 03:58:09;;;;;;;4.63;3.47;;;-2.00;99.90;;;;;;5051603;28;20537;-48
2022/12/09 04:00:38;;;;;;;5.90;4.33;;;-1.70;99.90;;;;;;5068309;28;20472;-48
2022/12/09 04:03:06;;;;;;;6.73;4.40;;;-1.40;99.90;;;;;;5051700;28;20496;-48
2022/12/09 04:05:33;;;;;;;3.00;2.70;;;-1.40;99.90;;;;;;5051604;28;20445;-48
2022/12/09 04:08:01;;;;;;;3.90;3.50;;;-1.30;99.90;;;;;;5051467;28;21083;-48
2022/12/09 04:10:28;;;;;;;4.70;2.90;;;-1.20;99.90;;;;;;5051634;28;20442;-50
2022/12/09 04:12:55;;;;;;;3.90;3.60;;;-1.20;99.90;;;;;;5050923;28;20485;-49
2022/12/09 04:15:22;;;;;;;4.53;2.83;;;-1.10;99.90;;;;;;5052014;28;20437;-48
2022/12/09 04:17:49;;;;;;;5.60;3.60;;;-1.20;99.90;;;;;;5049988;28;20894;-48
2022/12/09 04:20:16;;;;;;;4.30;3.70;;;-1.20;99.90;;;;;;5061255;28;20540;-48
2022/12/09 04:22:42;;;;;;;4.33;3.30;;;-1.10;99.90;;;;;;5053718;28;20979;-48
2022/12/09 04:25:11;;;;;;;8.33;4.30;;;-1.20;99.90;;;;;;5055864;28;20445;-51
2022/12/09 04:27:38;;;;;;;4.73;4.17;;;-1.20;99.90;;;;;;5070850;28;20790;-49
2022/12/09 04:30:06;;;;;;;4.30;3.90;;;-1.10;99.90;;;;;;5070828;28;20445;-48
2022/12/09 04:32:33;;;;;;;3.20;2.90;;;-1.70;99.90;;;;;;5053970;28;20560;-49
2022/12/09 04:35:00;;;;;;;5.40;3.27;;;-1.50;99.90;;;;;;5049873;28;20497;-48
2022/12/09 04:37:26;;;;;;;7.07;4.70;;;-1.20;99.90;;;;;;5049461;28;20522;-50
2022/12/09 04:39:53;;;;;;;5.67;3.87;;;-1.40;99.90;;;;;;5051072;28;20822;-49
2022/12/09 04:42:22;;;;;;;4.57;4.17;;;-1.60;99.90;;;;;;5055219;28;21060;-50
2022/12/09 04:44:48;;;;;;;4.53;4.00;;;-1.60;99.90;;;;;;5049441;28;20448;-49
2022/12/09 04:47:15;;;;;;;6.57;3.83;;;-1.40;99.90;;;;;;5050573;28;20448;-51
2022/12/09 04:49:42;;;;;;;6.63;4.20;;;-1.20;99.90;;;;;;5068673;28;20956;-48
2022/12/09 04:52:09;;;;;;;4.10;3.70;;;-1.30;99.90;;;;;;5070113;28;20472;-49
2022/12/09 04:54:36;;;;;;;5.93;4.13;;;-1.20;99.90;;;;;;5059386;28;20472;-50
2022/12/09 04:57:03;;;;;;;9.07;3.90;;;-1.60;99.90;;;;;;5051081;28;20528;-49
2022/12/09 04:59:32;;;;;;;5.50;3.30;;;-1.80;99.90;;;;;;5051007;28;20550;-51
2022/12/09 05:01:58;;;;;;;5.43;3.67;;;-1.70;99.90;;;;;;5065480;28;20543;-48
2022/12/09 05:04:25;;;;;;;4.20;3.27;;;-1.30;99.90;;;;;;5070635;28;20465;-48
2022/12/09 05:06:52;;;;;;;8.60;4.70;;;-1.20;99.90;;;;;;5070844;28;20614;-50
2022/12/09 05:09:19;;;;;;;5.20;3.97;;;-1.40;99.90;;;;;;5071283;28;20527;-49
2022/12/09 05:11:46;;;;;;;12.70;8.73;;;-1.40;99.90;;;;;;5058588;28;20479;-48
2022/12/09 05:14:13;;;;;;;6.53;4.97;;;-1.20;99.90;;;;;;5050533;28;20830;-49
2022/12/09 05:16:41;;;;;;;8.37;4.40;;;-1.00;99.90;;;;;;5051809;28;20894;-49
2022/12/09 05:19:08;;;;;;;5.53;4.17;;;-1.30;99.90;;;;;;5050740;28;20968;-48
2022/12/09 05:21:35;;;;;;;4.57;4.10;;;-1.40;99.90;;;;;;5050957;28;20437;-50
2022/12/09 05:24:03;;;;;;;4.43;4.00;;;-1.50;99.90;;;;;;5050756;28;20561;-48
2022/12/09 05:26:29;;;;;;;6.93;4.70;;;-1.70;99.90;;;;;;5061362;28;20670;-49
2022/12/09 05:28:56;;;;;;;5.80;4.90;;;-1.90;99.90;;;;;;5070201;28;20467;-48
2022/12/09 05:31:24;;;;;;;4.80;3.97;;;-1.80;99.90;;;;;;5067361;28;20575;-48
2022/12/09 05:33:52;;;;;;;4.37;3.97;;;-1.40;99.90;;;;;;5068575;28;20552;-48
2022/12/09 05:36:22;;;;;;;5.70;3.60;;;-1.40;99.90;;;;;;5050381;28;20532;-48
2022/12/09 05:38:50;;;;;;;4.20;3.73;;;-1.10;99.90;;;;;;5048670;28;20539;-48
2022/12/09 05:41:17;;;;;;;4.77;4.00;;;-1.30;99.90;;;;;;5052662;28;20441;-49
2022/12/09 05:43:44;;;;;;;4.40;3.67;;;-1.10;99.90;;;;;;5053248;28;20540;-49
2022/12/09 05:46:12;;;;;;;4.90;4.40;;;-0.80;99.90;;;;;;5053200;28;20442;-50
2022/12/09 05:48:39;;;;;;;6.37;4.80;;;-0.80;99.90;;;;;;5053835;28;20475;-49
2022/12/09 05:51:11;;;;;;;6.20;4.57;;;-0.80;99.90;;;;;;5054214;28;20884;-48
2022/12/09 05:53:38;;;;;;;4.27;3.83;;;-0.90;99.90;;;;;;5053271;28;20564;-48
2022/12/09 05:56:05;;;;;;;6.40;3.70;;;-1.00;99.90;;;;;;5053080;28;20450;-48
2022/12/09 05:58:33;;;;;;;5.77;5.00;;;-0.90;99.90;;;;;;5053365;28;20975;-49
2022/12/09 06:01:04;;;;;;;6.80;6.20;;;-0.80;99.90;;;;;;5052816;28;20438;-49
2022/12/09 06:03:31;;;;;;;6.13;5.47;;;-1.50;99.90;;;;;;5054454;28;20457;-49
2022/12/09 06:05:58;;;;;;;5.70;5.20;;;-1.70;99.90;;;;;;5063736;28;20838;-51
2022/12/09 06:08:26;;;;;;;7.47;5.40;;;-1.70;99.90;;;;;;5065840;28;20929;-48
2022/12/09 06:10:53;;;;;;;7.47;4.67;;;-1.70;99.90;;;;;;5053992;28;20445;-48
2022/12/09 06:13:20;;;;;;;6.73;5.27;;;-1.70;99.90;;;;;;5053867;28;20491;-49
2022/12/09 06:15:46;;;;;;;5.80;4.73;;;-1.60;99.90;;;;;;5053880;28;20943;-49
2022/12/09 06:18:13;;;;;;;7.70;4.70;;;-1.30;99.90;;;;;;5053947;28;20442;-49
2022/12/09 06:20:41;;;;;;;6.07;4.40;;;-1.10;99.90;;;;;;5059327;28;20453;-48
2022/12/09 06:23:08;;;;;;;5.23;3.00;;;-1.00;99.90;;;;;;5058975;28;20466;-48
2022/12/09 06:25:36;;;;;;;4.07;3.37;;;-1.30;99.90;;;;;;5053314;28;20454;-49
2022/12/09 06:28:03;;;;;;;7.30;5.13;;;-1.10;99.90;;;;;;5066200;28;20532;-49
2022/12/09 06:30:30;;;;;;;6.73;5.40;;;-0.90;99.90;;;;;;5073593;28;20476;-48
2022/12/09 06:32:57;;;;;;;5.70;5.00;;;-0.80;99.90;;;;;;5072318;28;21026;-51
2022/12/09 06:35:24;;;;;;;6.50;4.80;;;-0.90;99.90;;;;;;5073443;28;20536;-50
2022/12/09 06:37:52;;;;;;;6.30;5.70;;;-1.10;99.90;;;;;;5072882;28;20437;-49
2022/12/09 06:40:20;;;;;;;7.27;5.20;;;-1.10;99.90;;;;;;5073581;28;20437;-49
2022/12/09 06:42:49;;;;;;;7.03;6.33;;;-1.20;99.90;;;;;;5073101;28;20891;-48
2022/12/09 06:45:16;;;;;;;9.10;7.13;;;-1.20;99.90;;;;;;5072779;28;20531;-49
2022/12/09 06:47:43;;;;;;;7.93;6.47;;;-1.00;99.90;;;;;;5073322;28;20532;-48
2022/12/09 06:50:11;;;;;;;8.00;6.30;;;-1.00;99.90;;;;;;5072972;28;20445;-49
2022/12/09 06:52:38;;;;;;;10.20;9.17;;;-1.10;99.90;;;;;;5072623;28;20559;-48
2022/12/09 06:55:07;;;;;;;14.73;11.20;;;-1.20;99.90;;;;;;5072922;28;20448;-48
2022/12/09 06:57:34;;;;;;;16.57;14.80;;;-0.90;99.90;;;;;;5073282;28;20441;-49
2022/12/09 07:00:03;;;;;;;12.33;11.20;;;-1.20;99.90;;;;;;5072850;28;20448;-48
2022/12/09 07:02:30;;;;;;;7.33;6.53;;;-1.10;99.90;;;;;;5072732;28;20524;-48
2022/12/09 07:04:57;;;;;;;6.23;5.63;;;-0.90;99.90;;;;;;5072246;28;20451;-48
2022/12/09 07:07:24;;;;;;;7.70;6.90;;;-1.00;99.90;;;;;;5073090;28;20440;-50
2022/12/09 07:09:51;;;;;;;8.20;6.27;;;-1.00;99.90;;;;;;5072605;28;20527;-48
2022/12/09 07:12:18;;;;;;;7.10;6.40;;;-1.00;99.90;;;;;;5072723;28;20567;-50
2022/12/09 07:14:45;;;;;;;7.00;6.10;;;-0.70;99.90;;;;;;5072276;28;20955;-49
2022/12/09 07:17:17;;;;;;;6.73;5.53;;;-0.70;99.90;;;;;;5072555;28;20444;-49
2022/12/09 07:19:44;;;;;;;7.10;5.80;;;-0.60;99.90;;;;;;5072245;28;20547;-49
2022/12/09 07:22:11;;;;;;;5.50;5.00;;;-0.50;99.90;;;;;;5072588;28;20448;-49
2022/12/09 07:24:38;;;;;;;7.83;6.10;;;-0.50;99.90;;;;;;5070360;28;21056;-48
2022/12/09 07:27:06;;;;;;;9.50;5.47;;;-0.60;99.90;;;;;;5070480;28;20967;-49
2022/12/09 07:29:34;;;;;;;19.70;8.57;;;-1.20;99.90;;;;;;5069671;28;20456;-49
2022/12/09 07:32:01;;;;;;;12.57;8.77;;;-1.00;99.90;;;;;;5071904;28;20531;-49
2022/12/09 07:34:29;;;;;;;11.60;7.57;;;-0.70;99.90;;;;;;5071359;28;20551;-48
2022/12/09 07:36:56;;;;;;;11.53;8.90;;;-0.50;99.90;;;;;;5071381;28;20441;-49
2022/12/09 07:39:22;;;;;;;10.43;7.63;;;-1.00;99.90;;;;;;5071890;28;20515;-48
2022/12/09 07:41:53;;;;;;;8.27;7.43;;;-1.30;99.90;;;;;;5072221;28;20441;-48
2022/12/09 07:44:20;;;;;;;9.10;7.10;;;-1.20;99.90;;;;;;5071649;28;20468;-48
2022/12/09 07:46:47;;;;;;;8.83;7.23;;;-1.00;99.90;;;;;;5072234;28;20441;-48
2022/12/09 07:49:14;;;;;;;7.93;6.77;;;-0.80;99.90;;;;;;5071698;28;20445;-48
2022/12/09 07:51:43;;;;;;;8.77;7.03;;;-0.60;99.90;;;;;;5071868;28;20445;-48
2022/12/09 07:54:12;;;;;;;9.13;7.07;;;-0.60;99.90;;;;;;5071168;28;20563;-49
2022/12/09 07:56:38;;;;;;;13.93;8.60;;;-0.70;99.90;;;;;;5071491;28;20464;-51
2022/12/09 07:59:07;;;;;;;11.83;8.33;;;-0.70;99.90;;;;;;5071660;28;20440;-49
2022/12/09 08:01:34;;;;;;;11.23;8.90;;;-0.50;99.90;;;;;;5071885;28;20447;-48
2022/12/09 08:04:01;;;;;;;10.20;7.87;;;-0.50;99.90;;;;;;5070712;28;20885;-49
2022/12/09 08:06:29;;;;;;;7.40;6.60;;;-0.50;99.90;;;;;;5071347;28;20445;-48
2022/12/09 08:08:59;;;;;;;6.27;5.70;;;-0.40;99.90;;;;;;5071656;28;20642;-48
2022/12/09 08:11:28;;;;;;;7.57;6.73;;;-0.40;99.90;;;;;;5071559;28;20532;-48
2022/12/09 08:13:56;;;;;;;6.87;6.30;;;-0.60;99.90;;;;;;5071442;28;20491;-48
2022/12/09 08:16:24;;;;;;;8.10;7.30;;;-0.60;99.90;;;;;;5071604;28;20507;-48
2022/12/09 08:18:52;;;;;;;7.63;6.93;;;-0.40;99.90;;;;;;5071239;28;20459;-48
2022/12/09 08:21:20;;;;;;;9.27;8.23;;;-0.60;99.90;;;;;;5071544;28;20452;-48
2022/12/09 08:23:49;;;;;;;10.30;7.60;;;-0.50;99.90;;;;;;5071060;28;21046;-49
2022/12/09 08:26:20;;;;;;;27.33;17.50;;;-0.50;99.90;;;;;;5071604;28;20441;-48
2022/12/09 08:28:47;;;;;;;11.87;10.33;;;-0.50;99.90;;;;;;5071663;28;20510;-51
2022/12/09 08:31:16;;;;;;;14.20;10.60;;;-0.80;99.90;;;;;;5071555;28;20533;-48
2022/12/09 08:33:43;;;;;;;9.03;7.70;;;-0.90;99.90;;;;;;5072397;28;21080;-52
2022/12/09 08:36:15;;;;;;;14.80;9.03;;;-0.80;99.90;;;;;;5071475;28;20528;-48
2022/12/09 08:38:42;;;;;;;12.50;10.23;;;-0.40;99.90;;;;;;5071218;28;20437;-48
2022/12/09 08:41:11;;;;;;;11.97;10.20;;;-0.20;99.90;;;;;;5071086;28;20477;-50
2022/12/09 08:43:40;;;;;;;12.20;10.00;;;-0.10;99.90;;;;;;5070919;28;20453;-49
2022/12/09 08:46:08;;;;;;;10.30;7.90;;;-0.10;99.90;;;;;;5071306;28;20549;-48
2022/12/09 08:48:36;;;;;;;8.73;7.83;;;0.00;99.90;;;;;;5071155;28;20451;-48
2022/12/09 08:51:04;;;;;;;9.30;6.90;;;0.00;99.90;;;;;;5071064;28;20445;-49
2022/12/09 08:53:30;;;;;;;8.23;6.07;;;0.00;99.90;;;;;;5070608;28;20567;-49
2022/12/09 08:55:57;;;;;;;7.13;6.33;;;0.10;99.90;;;;;;5071005;28;20443;-48
2022/12/09 08:58:24;;;;;;;10.30;6.27;;;-0.10;99.90;;;;;;5071083;28;20528;-48
2022/12/09 09:00:53;;;;;;;7.83;6.30;;;0.40;99.90;;;;;;5071012;28;20532;-48
2022/12/09 09:03:19;;;;;;;8.60;7.50;;;0.10;99.90;;;;;;5070570;28;20483;-48
2022/12/09 09:05:46;;;;;;;8.43;7.03;;;-0.30;99.90;;;;;;5071218;28;20447;-48
2022/12/09 09:08:13;;;;;;;11.20;7.30;;;-0.10;99.90;;;;;;5070903;28;20447;-49
2022/12/09 09:10:40;;;;;;;8.50;7.70;;;0.10;99.90;;;;;;5071074;28;20441;-48
2022/12/09 09:13:07;;;;;;;7.73;6.83;;;0.10;99.90;;;;;;5070677;28;20849;-48
2022/12/09 09:15:34;;;;;;;8.17;7.47;;;0.00;99.90;;;;;;5073621;28;20451;-50
2022/12/09 09:18:02;;;;;;;7.83;7.03;;;0.00;99.90;;;;;;5073254;28;20969;-49
2022/12/09 09:20:28;;;;;;;8.97;6.90;;;0.10;99.90;;;;;;5073626;28;20900;-48
2022/12/09 09:22:55;;;;;;;7.93;6.00;;;0.10;99.90;;;;;;5073833;28;20456;-52
2022/12/09 09:25:22;;;;;;;6.50;5.90;;;0.20;99.90;;;;;;5074260;28;20440;-49
2022/12/09 09:27:49;;;;;;;7.77;7.00;;;0.00;99.90;;;;;;5074449;28;20443;-47
2022/12/09 09:30:16;;;;;;;10.03;9.00;;;-0.30;99.90;;;;;;5074295;28;20436;-49
2022/12/09 09:32:43;;;;;;;8.10;7.30;;;-0.40;99.90;;;;;;5074443;28;20493;-48
2022/12/09 09:35:11;;;;;;;10.03;8.70;;;-0.40;99.90;;;;;;5074295;28;20441;-48
2022/12/09 09:37:38;;;;;;;10.23;8.67;;;-0.20;99.90;;;;;;5073693;28;20528;-48
2022/12/09 09:40:06;;;;;;;9.83;8.90;;;-0.10;99.90;;;;;;5074374;28;20455;-48
2022/12/09 09:42:37;;;;;;;10.00;8.70;;;0.10;99.90;;;;;;5074277;28;20921;-48
2022/12/09 09:45:10;;;;;;;10.97;8.20;;;0.10;99.90;;;;;;5073799;28;20531;-52
2022/12/09 09:47:42;;;;;;;7.40;6.70;;;0.10;99.90;;;;;;5074373;28;20440;-48
2022/12/09 09:50:24;;;;;;;9.63;8.70;;;0.10;99.90;;;;;;5074337;28;20536;-48
2022/12/09 09:52:53;;;;;;;9.17;8.37;;;0.20;99.90;;;;;;5073661;28;20469;-47
2022/12/09 09:55:33;;;;;;;9.53;7.60;;;0.20;99.90;;;;;;5073974;28;20531;-48
2022/12/09 09:58:10;;;;;;;9.30;7.53;;;0.10;99.90;;;;;;5073915;28;20535;-50
2022/12/09 10:00:43;;;;;;;8.10;7.10;;;0.00;99.90;;;;;;5073853;28;20441;-47
2022/12/09 10:03:14;;;;;;;9.90;6.87;;;0.00;99.90;;;;;;5073475;28;20539;-47
2022/12/09 10:05:49;;;;;;;7.40;6.70;;;0.30;99.90;;;;;;5073973;28;20531;-48
2022/12/09 10:08:31;;;;;;;10.27;7.17;;;0.30;99.90;;;;;;5073701;28;20531;-47
2022/12/09 10:11:07;;;;;;;7.30;6.60;;;0.30;99.90;;;;;;5073787;28;20531;-47
2022/12/09 10:13:45;;;;;;;8.73;7.27;;;0.40;99.90;;;;;;5073225;28;20516;-47
2022/12/09 10:16:17;;;;;;;8.77;7.93;;;0.30;99.90;;;;;;5073725;28;20531;-47
2022/12/09 10:18:56;;;;;;;8.57;7.27;;;0.10;99.90;;;;;;5073466;28;20535;-48
2022/12/09 10:21:27;;;;;;;7.70;7.00;;;0.20;99.90;;;;;;5073447;28;20536;-47
2022/12/09 10:23:56;;;;;;;9.30;7.50;;;0.30;99.90;;;;;;5073173;28;21032;-47
2022/12/09 10:26:26;;;;;;;9.60;6.10;;;0.40;99.90;;;;;;5072947;28;20476;-47
2022/12/09 10:29:02;;;;;;;7.77;6.53;;;0.10;99.90;;;;;;5073396;28;20960;-47
2022/12/09 10:31:29;;;;;;;6.40;5.80;;;0.20;99.90;;;;;;5073240;28;20447;-47
2022/12/09 10:33:56;;;;;;;6.20;5.60;;;0.20;99.90;;;;;;5072868;28;20575;-47
2022/12/09 10:36:26;;;;;;;7.23;6.27;;;0.40;99.90;;;;;;5073184;28;20528;-48
2022/12/09 10:38:53;;;;;;;7.63;6.90;;;0.50;99.90;;;;;;5073020;28;20437;-47
2022/12/09 10:44:22;;;;;;;9.03;8.13;;;0.60;99.90;;;;;;5051155;28;20536;-47
2022/12/09 10:46:55;;;;;;;7.93;6.43;;;0.60;99.90;;;;;;5073191;28;20925;-47
2022/12/09 10:49:23;;;;;;;8.13;7.13;;;0.60;99.90;;;;;;5072830;28;20524;-47
2022/12/09 10:51:53;;;;;;;7.43;6.57;;;0.60;99.90;;;;;;5073210;28;20483;-47
2022/12/09 10:54:29;;;;;;;9.73;7.73;;;0.40;99.90;;;;;;5072356;28;20921;-49
2022/12/09 10:57:22;;;;;;;10.70;7.43;;;0.50;99.90;;;;;;5072929;28;20897;-47
2022/12/09 10:59:58;;;;;;;8.67;6.70;;;0.40;99.90;;;;;;5073359;28;20807;-47
2022/12/09 11:02:25;;;;;;;17.00;11.80;;;0.10;99.90;;;;;;5073950;28;20532;-47
2022/12/09 11:04:52;;;;;;;26.07;23.37;;;-0.10;99.90;;;;;;5073624;28;20544;-49
2022/12/09 11:07:23;;;;;;;14.10;10.70;;;0.00;99.90;;;;;;5073282;28;20453;-47
2022/12/09 11:09:52;;;;;;;10.00;7.97;;;0.20;99.90;;;;;;5072881;28;20818;-47
2022/12/09 11:12:30;;;;;;;18.97;13.40;;;0.20;99.90;;;;;;5072489;28;20475;-47
2022/12/09 11:14:59;;;;;;;11.23;9.10;;;0.30;99.90;;;;;;5072245;28;20477;-47
2022/12/09 11:17:29;;;;;;;10.20;7.27;;;0.60;99.90;;;;;;5072308;28;20441;-47
2022/12/09 11:20:19;;;;;;;9.50;8.60;;;0.60;99.90;;;;;;5072709;28;20485;-47
2022/12/09 11:22:59;;;;;;;12.90;9.40;;;0.80;99.90;;;;;;5072296;28;21060;-47
2022/12/09 11:25:28;;;;;;;10.60;8.33;;;0.80;99.90;;;;;;5072406;28;20483;-50
2022/12/09 11:27:58;;;;;;;10.97;7.60;;;0.90;99.90;;;;;;5072186;28;20872;-48
2022/12/09 11:30:27;;;;;;;12.77;9.17;;;0.90;99.90;;;;;;5072418;28;20805;-47
2022/12/09 11:32:57;;;;;;;14.30;11.60;;;0.90;99.90;;;;;;5071954;28;20551;-47
2022/12/09 11:35:29;;;;;;;8.40;6.93;;;0.70;99.90;;;;;;5071876;28;20472;-48
2022/12/09 11:38:02;;;;;;;7.67;6.90;;;0.40;99.90;;;;;;5070754;28;20445;-49
2022/12/09 11:40:29;;;;;;;9.00;7.43;;;0.20;99.90;;;;;;5072307;28;20445;-50
2022/12/09 11:42:57;;;;;;;8.30;7.43;;;0.20;99.90;;;;;;5071680;28;20547;-47
2022/12/09 11:45:30;;;;;;;11.00;7.13;;;0.50;99.90;;;;;;5072224;28;20480;-47
2022/12/09 11:48:07;;;;;;;11.03;7.73;;;0.10;99.90;;;;;;5071931;28;20960;-46
2022/12/09 11:50:40;;;;;;;7.77;7.00;;;0.10;99.90;;;;;;5071996;28;20523;-47
2022/12/09 11:53:27;;;;;;;12.33;9.07;;;0.50;99.90;;;;;;5071703;28;20461;-49
2022/12/09 11:55:58;;;;;;;10.23;7.40;;;0.60;99.90;;;;;;5071969;28;20755;-48
2022/12/09 11:58:29;;;;;;;10.77;7.00;;;0.70;99.90;;;;;;5071776;28;20536;-47
2022/12/09 12:01:00;;;;;;;8.70;6.67;;;0.50;99.90;;;;;;5072225;28;20528;-48
2022/12/09 12:03:34;;;;;;;7.37;6.67;;;0.30;99.90;;;;;;5071496;28;20547;-47
2022/12/09 12:06:04;;;;;;;9.43;7.10;;;0.30;99.90;;;;;;5071864;28;20530;-47
2022/12/09 12:08:37;;;;;;;8.63;7.10;;;0.30;99.90;;;;;;5071558;28;20531;-47
2022/12/09 12:11:07;;;;;;;11.90;7.07;;;0.40;99.90;;;;;;5071413;28;20460;-47
2022/12/09 12:13:38;;;;;;;11.13;7.50;;;0.50;99.90;;;;;;5071101;28;20559;-47
2022/12/09 12:16:10;;;;;;;9.00;6.70;;;0.70;99.90;;;;;;5071650;28;20447;-49
2022/12/09 12:18:48;;;;;;;8.33;6.23;;;0.80;99.90;;;;;;5071685;28;20464;-47
2022/12/09 12:21:21;;;;;;;10.97;6.60;;;0.90;99.90;;;;;;5071477;28;20939;-50
2022/12/09 12:24:28;;;;;;;11.30;7.30;;;1.00;99.90;;;;;;5071189;28;20977;-47
2022/12/09 12:27:08;;;;;;;7.27;6.17;;;0.90;99.90;;;;;;5009547;28;20534;-48
2022/12/09 12:29:47;;;;;;;7.07;6.40;;;1.10;99.90;;;;;;5010005;28;20894;-46
2022/12/09 12:32:38;;;;;;;7.37;6.30;;;1.10;99.90;;;;;;5050745;28;20495;-49
2022/12/09 12:35:27;;;;;;;8.70;7.60;;;1.10;99.90;;;;;;5071332;28;20473;-48
2022/12/09 12:38:04;;;;;;;8.80;7.20;;;1.30;99.90;;;;;;5071427;28;20955;-47
2022/12/09 12:40:40;;;;;;;7.80;6.77;;;1.30;99.90;;;;;;5071647;28;20440;-47
2022/12/09 12:46:25;;;;;;;8.97;8.23;;;1.30;99.90;;;;;;5071778;28;20505;-48
2022/12/09 12:49:06;;;;;;;8.70;7.00;;;1.30;99.90;;;;;;5072582;28;20444;-47
2022/12/09 12:51:43;;;;;;;12.00;7.87;;;1.20;99.90;;;;;;5075923;28;20476;-47
2022/12/09 12:54:17;;;;;;;11.80;9.33;;;1.50;99.90;;;;;;5075066;28;20567;-48
2022/12/09 12:56:54;;;;;;;9.40;7.00;;;1.50;99.90;;;;;;5074994;28;20440;-48
2022/12/09 12:59:27;;;;;;;7.37;5.93;;;1.50;99.90;;;;;;5075211;28;20531;-48
2022/12/09 13:02:00;;;;;;;7.93;7.03;;;1.40;99.90;;;;;;5075345;28;20444;-48
2022/12/09 13:04:34;;;;;;;7.60;6.30;;;1.40;99.90;;;;;;5075035;28;20459;-48
2022/12/09 13:07:09;;;;;;;10.03;7.23;;;1.40;99.90;;;;;;5075000;28;20440;-47